Time;durP1;ratioP1;P1;durP2;ratioP2;P2;SDS_P1;SDS_P2;PMS_P1;PMS_P2;Temp;Humidity;BMP_temperature;BMP_pressure;BME280_temperature;BME280_humidity;BME280_pressure;Samples;Min_cycle;Max_cycle;Signal;HPM_P1;HPM_P2
2022/09/24 00:02:16;;;;;;;4.80;4.13;;;12.50;99.90;;;;;;5012544;28;20206;-56
2022/09/24 00:04:44;;;;;;;4.87;4.07;;;12.50;99.90;;;;;;5012981;28;20476;-56
2022/09/24 00:07:10;;;;;;;6.33;4.57;;;12.50;99.90;;;;;;5012529;28;20230;-58
2022/09/24 00:09:37;;;;;;;5.30;4.67;;;12.60;99.90;;;;;;5012759;28;20207;-58
2022/09/24 00:12:04;;;;;;;7.03;4.80;;;12.60;99.90;;;;;;5012074;28;20233;-57
2022/09/24 00:14:30;;;;;;;5.03;4.40;;;12.70;99.90;;;;;;5012548;28;20207;-56
2022/09/24 00:16:57;;;;;;;7.20;4.77;;;12.70;99.90;;;;;;5012722;28;20222;-57
2022/09/24 00:19:24;;;;;;;7.63;4.70;;;12.70;99.90;;;;;;5012914;28;20238;-57
2022/09/24 00:21:52;;;;;;;5.27;4.20;;;12.70;99.90;;;;;;5011828;28;20766;-57
2022/09/24 00:27:01;;;;;;;4.37;3.97;;;12.70;99.90;;;;;;5011922;28;20730;-59
2022/09/24 00:29:28;;;;;;;9.33;4.80;;;12.60;99.90;;;;;;5012707;28;20206;-59
2022/09/24 00:31:55;;;;;;;5.67;4.00;;;12.70;99.90;;;;;;5011690;28;20621;-56
2022/09/24 00:34:23;;;;;;;5.33;4.13;;;12.70;99.90;;;;;;5012350;28;20214;-56
2022/09/24 00:36:51;;;;;;;7.50;4.60;;;12.80;99.90;;;;;;5012110;28;20227;-58
2022/09/24 00:39:19;;;;;;;6.13;4.00;;;12.90;99.90;;;;;;5012182;28;20302;-60
2022/09/24 00:41:47;;;;;;;4.77;4.20;;;12.90;99.90;;;;;;5011482;28;20207;-57
2022/09/24 00:44:46;;;;;;;5.50;4.70;;;12.80;99.90;;;;;;5012263;28;20213;-58
2022/09/24 00:47:18;;;;;;;4.60;3.97;;;12.80;99.90;;;;;;5008571;28;20647;-56
2022/09/24 00:49:46;;;;;;;5.80;4.00;;;12.80;99.90;;;;;;5011955;28;20215;-58
2022/09/24 00:52:13;;;;;;;4.73;4.23;;;12.90;99.90;;;;;;5011509;28;20238;-57
2022/09/24 00:54:43;;;;;;;6.63;4.87;;;12.90;99.90;;;;;;5012264;28;20218;-57
2022/09/24 00:57:09;;;;;;;7.87;4.73;;;12.90;99.90;;;;;;5012175;28;20223;-56
2022/09/24 00:59:36;;;;;;;5.00;3.77;;;12.90;99.90;;;;;;5012127;28;20207;-57
2022/09/24 01:02:04;;;;;;;6.67;4.50;;;13.00;99.90;;;;;;5011502;28;20290;-57
2022/09/24 01:04:31;;;;;;;5.60;4.37;;;13.00;99.90;;;;;;5011973;28;20239;-58
2022/09/24 01:06:58;;;;;;;5.27;4.77;;;13.00;99.90;;;;;;5012413;28;20610;-60
2022/09/24 01:09:27;;;;;;;4.60;4.07;;;13.10;99.90;;;;;;5012131;28;20257;-60
2022/09/24 01:12:01;;;;;;;5.03;3.80;;;13.00;99.90;;;;;;5011426;28;20218;-60
2022/09/24 01:14:46;;;;;;;7.53;3.90;;;13.00;99.90;;;;;;5012056;28;20210;-60
2022/09/24 01:17:21;;;;;;;4.50;3.80;;;12.90;99.90;;;;;;5011854;28;20703;-60
2022/09/24 01:20:19;;;;;;;4.67;4.17;;;12.80;99.90;;;;;;5011834;28;20681;-60
2022/09/24 01:23:02;;;;;;;6.77;4.30;;;12.80;99.90;;;;;;5011226;28;20210;-60
2022/09/24 01:25:39;;;;;;;4.40;4.00;;;12.80;99.90;;;;;;5011707;28;20305;-60
2022/09/24 01:28:25;;;;;;;5.63;4.13;;;12.80;99.90;;;;;;5012974;28;20760;-60
2022/09/24 01:30:59;;;;;;;4.57;4.03;;;12.80;99.90;;;;;;5011866;28;20264;-60
2022/09/24 01:33:28;;;;;;;7.70;4.70;;;12.80;99.90;;;;;;5011161;28;20297;-59
2022/09/24 01:35:59;;;;;;;5.50;4.23;;;12.80;99.90;;;;;;5011652;28;20235;-60
2022/09/24 01:38:29;;;;;;;6.50;4.53;;;12.80;99.90;;;;;;5011868;28;20284;-60
2022/09/24 01:40:59;;;;;;;4.63;4.17;;;12.80;99.90;;;;;;5011714;28;20211;-60
2022/09/24 01:43:29;;;;;;;6.20;4.40;;;12.90;99.90;;;;;;5011006;28;20203;-60
2022/09/24 01:46:02;;;;;;;6.57;4.47;;;12.80;99.90;;;;;;5011504;28;20906;-59
2022/09/24 01:48:29;;;;;;;6.73;4.40;;;12.80;99.90;;;;;;5011483;28;20218;-61
2022/09/24 01:51:01;;;;;;;5.93;4.53;;;12.80;99.90;;;;;;5011681;28;20223;-58
2022/09/24 01:53:31;;;;;;;4.97;4.47;;;12.80;99.90;;;;;;5011039;28;20207;-61
2022/09/24 01:56:02;;;;;;;5.23;4.30;;;12.70;99.90;;;;;;5011648;28;20231;-61
2022/09/24 01:58:33;;;;;;;5.23;4.43;;;12.70;99.90;;;;;;5011441;28;20211;-59
2022/09/24 02:01:06;;;;;;;4.80;4.30;;;12.70;99.90;;;;;;5012765;28;20697;-60
2022/09/24 02:03:36;;;;;;;4.90;4.40;;;12.80;99.90;;;;;;5014524;28;20285;-59
2022/09/24 02:06:09;;;;;;;5.37;4.67;;;12.80;99.90;;;;;;5014872;28;20325;-60
2022/09/24 02:08:39;;;;;;;4.77;4.20;;;12.70;99.90;;;;;;5014496;28;20227;-62
2022/09/24 02:11:08;;;;;;;6.30;4.73;;;12.70;99.90;;;;;;5014900;28;20212;-60
2022/09/24 02:13:42;;;;;;;5.50;4.60;;;12.60;99.90;;;;;;5014336;28;20589;-60
2022/09/24 02:16:15;;;;;;;5.13;4.63;;;12.50;99.90;;;;;;5014991;28;20281;-60
2022/09/24 02:18:46;;;;;;;5.53;4.60;;;12.50;99.90;;;;;;5014904;28;20203;-60
2022/09/24 02:21:16;;;;;;;4.90;4.50;;;12.50;99.90;;;;;;5014693;28;20265;-60
2022/09/24 02:23:47;;;;;;;6.33;5.13;;;12.50;99.90;;;;;;5013987;28;20615;-60
2022/09/24 02:26:15;;;;;;;5.30;4.40;;;12.40;99.90;;;;;;5014612;28;20227;-60
2022/09/24 02:28:41;;;;;;;7.13;4.60;;;12.40;99.90;;;;;;5014689;28;20227;-59
2022/09/24 02:31:13;;;;;;;5.77;4.90;;;12.40;99.90;;;;;;5014957;28;20218;-60
2022/09/24 02:36:30;;;;;;;5.67;4.63;;;12.40;99.90;;;;;;5014491;28;20245;-59
2022/09/24 02:38:57;;;;;;;6.03;4.70;;;12.40;99.90;;;;;;5014491;28;20203;-58
2022/09/24 02:41:24;;;;;;;5.47;4.93;;;12.40;99.90;;;;;;5014696;28;20261;-59
2022/09/24 02:43:51;;;;;;;4.50;4.10;;;12.40;99.90;;;;;;5013586;28;20206;-59
2022/09/24 02:46:19;;;;;;;5.83;4.40;;;12.40;99.90;;;;;;5014033;28;20230;-60
2022/09/24 02:48:46;;;;;;;6.37;4.87;;;12.50;99.90;;;;;;5014030;28;20219;-60
2022/09/24 02:51:13;;;;;;;5.53;4.47;;;12.50;99.90;;;;;;5014323;28;20211;-60
2022/09/24 02:53:40;;;;;;;5.60;4.77;;;12.50;99.90;;;;;;5013715;28;20313;-60
2022/09/24 02:56:07;;;;;;;5.87;4.40;;;12.40;99.90;;;;;;5014218;28;20631;-60
2022/09/24 02:58:36;;;;;;;5.10;4.50;;;12.40;99.90;;;;;;5014148;28;20218;-60
2022/09/24 03:01:03;;;;;;;5.80;4.63;;;12.40;99.90;;;;;;5013958;28;20402;-62
2022/09/24 03:03:32;;;;;;;5.90;4.20;;;12.30;99.90;;;;;;5013256;28;20745;-60
2022/09/24 03:05:59;;;;;;;8.73;4.67;;;12.30;99.90;;;;;;5013755;28;20281;-60
2022/09/24 03:08:26;;;;;;;4.70;4.17;;;12.30;99.90;;;;;;5013814;28;20239;-60
2022/09/24 03:10:54;;;;;;;4.93;4.43;;;12.30;99.90;;;;;;5013913;28;20302;-60
2022/09/24 03:13:21;;;;;;;6.37;4.50;;;12.40;99.90;;;;;;5013182;28;20215;-60
2022/09/24 03:15:48;;;;;;;4.60;4.10;;;12.40;99.90;;;;;;5013544;28;20230;-60
2022/09/24 03:18:15;;;;;;;6.00;4.80;;;12.40;99.90;;;;;;5013727;28;20686;-60
2022/09/24 03:20:43;;;;;;;5.40;4.43;;;12.30;99.90;;;;;;5013555;28;20210;-59
2022/09/24 03:23:10;;;;;;;8.80;5.10;;;12.30;99.90;;;;;;5013011;28;20230;-60
2022/09/24 03:25:37;;;;;;;8.20;4.17;;;12.30;99.90;;;;;;5013394;28;20281;-60
2022/09/24 03:28:03;;;;;;;4.93;4.43;;;12.30;99.90;;;;;;5013339;28;20643;-59
2022/09/24 03:33:14;;;;;;;5.33;4.60;;;12.30;99.90;;;;;;5012807;28;20202;-60
2022/09/24 03:35:42;;;;;;;5.00;4.17;;;12.40;99.90;;;;;;5013271;28;20238;-60
2022/09/24 03:38:09;;;;;;;4.73;4.13;;;12.30;99.90;;;;;;5013270;28;20203;-60
2022/09/24 03:40:36;;;;;;;5.40;4.27;;;12.30;99.90;;;;;;5013238;28;20210;-60
2022/09/24 03:43:02;;;;;;;5.23;4.30;;;12.30;99.90;;;;;;5012479;28;20210;-60
2022/09/24 03:45:29;;;;;;;7.30;4.90;;;12.30;99.90;;;;;;5013207;28;20207;-60
2022/09/24 03:47:56;;;;;;;5.27;4.53;;;12.30;99.90;;;;;;5012997;28;20230;-60
2022/09/24 03:50:22;;;;;;;5.67;5.07;;;12.20;99.90;;;;;;5012952;28;20675;-59
2022/09/24 03:52:50;;;;;;;5.50;4.53;;;12.30;99.90;;;;;;5012377;28;20207;-60
2022/09/24 03:55:17;;;;;;;5.20;4.70;;;12.20;99.90;;;;;;5012783;28;20679;-59
2022/09/24 03:57:44;;;;;;;6.23;5.10;;;12.30;99.90;;;;;;5013153;28;20199;-60
2022/09/24 04:00:11;;;;;;;8.70;4.83;;;12.20;99.90;;;;;;5012959;28;20264;-58
2022/09/24 04:02:39;;;;;;;6.77;4.90;;;12.20;99.90;;;;;;5012466;28;20588;-60
2022/09/24 04:05:06;;;;;;;6.37;4.93;;;12.30;99.90;;;;;;5012917;28;20226;-60
2022/09/24 04:07:33;;;;;;;8.03;5.60;;;12.30;99.90;;;;;;5012454;28;20231;-59
2022/09/24 04:10:01;;;;;;;7.23;5.03;;;12.30;99.90;;;;;;5012600;28;20671;-59
2022/09/24 04:12:28;;;;;;;7.00;5.13;;;12.30;99.90;;;;;;5012233;28;20214;-60
2022/09/24 04:14:55;;;;;;;5.57;5.07;;;12.30;99.90;;;;;;5012691;28;20298;-60
2022/09/24 04:17:21;;;;;;;6.03;5.43;;;12.40;99.90;;;;;;5012614;28;20230;-60
2022/09/24 04:19:49;;;;;;;6.40;5.80;;;12.40;99.90;;;;;;5013013;28;20207;-60
2022/09/24 04:22:16;;;;;;;6.60;5.27;;;12.40;99.90;;;;;;5011811;28;20652;-60
2022/09/24 04:24:44;;;;;;;8.03;5.23;;;12.50;99.90;;;;;;5012335;28;20632;-60
2022/09/24 04:27:12;;;;;;;8.63;5.90;;;12.50;99.90;;;;;;5012478;28;20222;-60
2022/09/24 04:29:38;;;;;;;6.40;5.53;;;12.50;99.90;;;;;;5012400;28;20206;-59
2022/09/24 04:32:05;;;;;;;7.67;5.50;;;12.60;99.90;;;;;;5011962;28;20206;-60
2022/09/24 04:34:32;;;;;;;10.43;5.60;;;12.60;99.90;;;;;;5012297;28;20803;-60
2022/09/24 04:36:58;;;;;;;6.67;5.60;;;12.60;99.90;;;;;;5012444;28;20231;-59
2022/09/24 04:39:26;;;;;;;6.03;5.40;;;12.70;99.90;;;;;;5012556;28;20277;-60
2022/09/24 04:41:53;;;;;;;8.70;5.60;;;12.70;99.90;;;;;;5012306;28;20216;-60
2022/09/24 04:44:21;;;;;;;6.17;5.57;;;12.60;99.90;;;;;;5011508;28;20225;-59
2022/09/24 04:46:48;;;;;;;6.73;6.00;;;12.60;99.90;;;;;;5012153;28;20278;-60
2022/09/24 04:49:14;;;;;;;7.53;5.57;;;12.70;99.90;;;;;;5012211;28;20268;-59
2022/09/24 04:51:41;;;;;;;8.50;5.90;;;12.80;99.90;;;;;;5012141;28;20215;-59
2022/09/24 04:54:08;;;;;;;7.63;5.50;;;12.80;99.90;;;;;;5011666;28;20206;-58
2022/09/24 04:56:35;;;;;;;7.20;5.50;;;12.90;99.90;;;;;;5012190;28;20223;-60
2022/09/24 04:59:02;;;;;;;8.23;5.83;;;12.90;99.90;;;;;;5012423;28;20209;-60
2022/09/24 05:01:30;;;;;;;10.33;5.40;;;13.00;99.90;;;;;;5012246;28;20207;-60
2022/09/24 05:03:56;;;;;;;8.67;5.73;;;13.10;99.90;;;;;;5011302;28;20298;-60
2022/09/24 05:06:23;;;;;;;8.30;5.27;;;13.10;99.90;;;;;;5011793;28;20234;-60
2022/09/24 05:08:50;;;;;;;6.33;5.27;;;13.10;99.90;;;;;;5011855;28;20738;-61
2022/09/24 05:11:18;;;;;;;6.10;5.50;;;13.10;99.90;;;;;;5011940;28;20206;-60
2022/09/24 05:13:44;;;;;;;8.67;6.17;;;13.10;99.90;;;;;;5011572;28;20580;-60
2022/09/24 05:16:11;;;;;;;6.93;5.30;;;13.10;99.90;;;;;;5011849;28;20730;-60
2022/09/24 05:18:39;;;;;;;10.70;5.90;;;13.10;99.90;;;;;;5011972;28;20253;-60
2022/09/24 05:21:06;;;;;;;9.23;5.87;;;13.10;99.90;;;;;;5011989;28;20257;-61
2022/09/24 05:23:33;;;;;;;9.43;6.60;;;13.20;99.90;;;;;;5011373;28;20229;-60
2022/09/24 05:28:44;;;;;;;7.17;6.00;;;13.30;99.90;;;;;;5011878;28;20610;-60
2022/09/24 05:31:11;;;;;;;6.23;5.63;;;13.30;99.90;;;;;;5011671;28;20217;-59
2022/09/24 05:33:39;;;;;;;7.27;5.70;;;13.40;99.90;;;;;;5011252;28;20211;-60
2022/09/24 05:36:06;;;;;;;6.97;5.60;;;13.40;99.90;;;;;;5012981;28;20223;-60
2022/09/24 05:38:32;;;;;;;10.53;5.90;;;13.40;99.90;;;;;;5015729;28;20210;-60
2022/09/24 05:40:59;;;;;;;8.70;5.60;;;13.40;99.90;;;;;;5015558;28;20207;-60
2022/09/24 05:43:27;;;;;;;7.83;5.73;;;13.40;99.90;;;;;;5014889;28;20210;-59
2022/09/24 05:45:55;;;;;;;11.53;6.50;;;13.50;99.90;;;;;;5015184;28;20309;-59
2022/09/24 05:48:22;;;;;;;6.43;5.83;;;13.50;99.90;;;;;;5015583;28;20227;-58
2022/09/24 05:50:54;;;;;;;7.37;5.30;;;13.60;99.90;;;;;;5015563;28;20210;-60
2022/09/24 05:53:21;;;;;;;7.23;5.37;;;13.50;99.90;;;;;;5014790;28;20235;-60
2022/09/24 05:55:48;;;;;;;9.23;6.03;;;13.60;99.90;;;;;;5015233;28;20310;-59
2022/09/24 05:58:15;;;;;;;6.67;5.90;;;13.60;99.90;;;;;;5015125;28;20622;-60
2022/09/24 06:00:41;;;;;;;10.50;6.00;;;13.70;99.90;;;;;;5015376;28;20635;-59
2022/09/24 06:03:12;;;;;;;9.03;5.83;;;13.80;99.90;;;;;;5014554;28;20218;-60
2022/09/24 06:05:42;;;;;;;12.07;6.80;;;13.80;99.90;;;;;;5014981;28;20246;-60
2022/09/24 06:08:10;;;;;;;10.00;6.33;;;14.00;99.90;;;;;;5015046;28;20229;-60
2022/09/24 06:10:37;;;;;;;8.30;6.00;;;14.10;99.90;;;;;;5014960;28;20261;-60
2022/09/24 06:13:04;;;;;;;6.73;5.90;;;14.30;99.90;;;;;;5014232;28;20273;-61
2022/09/24 06:15:31;;;;;;;7.53;5.90;;;14.30;99.90;;;;;;5014809;28;20613;-60
2022/09/24 06:17:58;;;;;;;8.43;5.17;;;14.40;99.90;;;;;;5014848;28;20242;-59
2022/09/24 06:20:24;;;;;;;7.73;5.30;;;14.50;99.90;;;;;;5014802;28;20211;-59
2022/09/24 06:22:56;;;;;;;7.03;4.83;;;14.60;99.90;;;;;;5014050;28;20203;-60
2022/09/24 06:25:24;;;;;;;6.57;5.30;;;14.60;99.90;;;;;;5014665;28;20302;-60
2022/09/24 06:27:59;;;;;;;6.93;5.37;;;14.60;99.90;;;;;;5014900;28;20369;-60
2022/09/24 06:30:26;;;;;;;6.10;5.00;;;14.50;99.90;;;;;;5014818;28;20674;-60
2022/09/24 06:32:53;;;;;;;7.03;5.23;;;14.50;99.90;;;;;;5014088;28;20295;-62
2022/09/24 06:35:20;;;;;;;6.43;4.87;;;14.60;99.90;;;;;;5014489;28;20742;-60
2022/09/24 06:37:48;;;;;;;6.73;5.40;;;14.60;99.90;;;;;;5014427;28;20641;-60
2022/09/24 06:40:14;;;;;;;5.60;5.00;;;14.60;99.90;;;;;;5014554;28;20257;-59
2022/09/24 06:42:42;;;;;;;8.87;5.30;;;14.60;99.90;;;;;;5013904;28;20215;-60
2022/09/24 06:45:10;;;;;;;7.50;5.33;;;14.70;99.90;;;;;;5014632;28;20213;-60
2022/09/24 06:47:37;;;;;;;6.37;5.30;;;14.70;99.90;;;;;;5013714;28;20234;-60
2022/09/24 06:50:05;;;;;;;6.60;4.97;;;14.80;99.90;;;;;;5014117;28;20231;-60
2022/09/24 06:52:32;;;;;;;7.33;5.70;;;15.00;99.90;;;;;;5013364;28;20641;-60
2022/09/24 06:54:59;;;;;;;7.87;5.30;;;15.00;99.90;;;;;;5014255;28;20288;-60
2022/09/24 06:57:25;;;;;;;6.33;5.33;;;15.20;99.90;;;;;;5014013;28;20231;-60
2022/09/24 06:59:53;;;;;;;8.77;6.30;;;15.40;99.90;;;;;;5013830;28;20226;-60
2022/09/24 07:02:20;;;;;;;8.80;6.20;;;15.60;99.90;;;;;;5013367;28;20211;-60
2022/09/24 07:04:47;;;;;;;6.03;5.43;;;15.80;99.90;;;;;;5013932;28;20218;-60
2022/09/24 07:07:32;;;;;;;7.93;5.50;;;16.00;99.90;;;;;;5014360;28;20235;-66
2022/09/24 07:10:00;;;;;;;7.97;5.97;;;16.10;99.90;;;;;;5013649;28;20321;-65
2022/09/24 07:12:28;;;;;;;6.90;5.47;;;16.20;99.90;;;;;;5013254;28;20316;-58
2022/09/24 07:14:56;;;;;;;7.83;5.60;;;16.30;99.90;;;;;;5013987;28;20317;-58
2022/09/24 07:17:23;;;;;;;7.05;5.53;;;16.10;99.90;;;;;;5013563;28;20227;-56
2022/09/24 07:19:50;;;;;;;6.97;5.10;;;16.10;99.90;;;;;;5013893;28;20203;-58
2022/09/24 07:22:17;;;;;;;5.80;5.30;;;16.30;99.90;;;;;;5012945;28;20249;-57
2022/09/24 07:24:43;;;;;;;6.10;5.28;;;16.50;99.90;;;;;;5013881;28;20206;-58
2022/09/24 07:27:10;;;;;;;5.97;4.70;;;16.80;99.90;;;;;;5013612;28;20227;-57
2022/09/24 07:29:37;;;;;;;6.38;5.00;;;16.90;99.90;;;;;;5013497;28;20233;-60
2022/09/24 07:32:06;;;;;;;7.40;5.18;;;17.00;99.90;;;;;;5013276;28;20265;-58
2022/09/24 07:34:33;;;;;;;5.18;4.50;;;17.10;99.90;;;;;;5013283;28;20222;-58
2022/09/24 07:36:59;;;;;;;5.13;4.63;;;17.20;99.90;;;;;;5013605;28;20292;-58
2022/09/24 07:39:27;;;;;;;8.57;6.07;;;17.40;99.90;;;;;;5013443;28;20213;-58
2022/09/24 07:41:53;;;;;;;14.90;9.35;;;17.50;99.90;;;;;;5013483;28;20211;-58
2022/09/24 07:44:21;;;;;;;7.78;6.30;;;17.50;99.90;;;;;;5012548;28;20215;-58
2022/09/24 07:46:49;;;;;;;5.47;4.97;;;17.50;99.90;;;;;;5013229;28;20277;-58
2022/09/24 07:49:17;;;;;;;10.20;5.88;;;17.50;99.90;;;;;;5013168;28;20288;-58
2022/09/24 07:51:44;;;;;;;6.80;5.15;;;17.30;99.90;;;;;;5013237;28;20241;-58
2022/09/24 07:54:11;;;;;;;7.88;5.22;;;17.10;99.90;;;;;;5012363;28;20206;-58
2022/09/24 07:56:38;;;;;;;7.55;5.38;;;17.00;99.90;;;;;;5013092;28;20646;-54
2022/09/24 07:59:06;;;;;;;9.93;5.53;;;17.20;99.90;;;;;;5012473;28;20207;-57
2022/09/24 08:01:34;;;;;;;7.72;5.75;;;17.10;99.90;;;;;;5012886;28;20214;-54
2022/09/24 08:04:01;;;;;;;7.57;5.47;;;16.90;99.90;;;;;;5012548;28;20245;-57
2022/09/24 08:06:32;;;;;;;10.07;6.38;;;16.80;99.90;;;;;;5012947;28;20242;-54
2022/09/24 08:08:58;;;;;;;9.68;6.57;;;16.80;99.90;;;;;;5013095;28;20230;-58
2022/09/24 08:11:25;;;;;;;10.18;5.50;;;17.00;99.90;;;;;;5013008;28;20253;-54
2022/09/24 08:13:52;;;;;;;9.33;5.20;;;17.20;99.90;;;;;;5012608;28;20207;-53
2022/09/24 08:16:20;;;;;;;6.05;5.43;;;17.40;99.90;;;;;;5012578;28;20230;-53
2022/09/24 08:18:47;;;;;;;8.02;5.68;;;17.40;99.90;;;;;;5013453;28;20199;-53
2022/09/24 08:21:14;;;;;;;8.18;4.95;;;17.30;99.90;;;;;;5012899;28;20265;-54
2022/09/24 08:23:43;;;;;;;7.53;5.68;;;17.20;99.90;;;;;;5011776;28;20749;-53
2022/09/24 08:26:10;;;;;;;6.28;5.68;;;17.10;99.90;;;;;;5012220;28;20230;-54
2022/09/24 08:28:37;;;;;;;5.97;5.33;;;17.00;99.90;;;;;;5012358;28;20210;-54
2022/09/24 08:31:07;;;;;;;7.53;5.78;;;16.90;99.90;;;;;;5012470;28;20202;-54
2022/09/24 08:33:35;;;;;;;7.72;5.50;;;16.90;99.90;;;;;;5011714;28;20207;-54
2022/09/24 08:36:03;;;;;;;7.57;5.68;;;17.00;99.90;;;;;;5012153;28;20234;-53
2022/09/24 08:38:30;;;;;;;7.43;5.47;;;17.10;99.90;;;;;;5012145;28;20757;-55
2022/09/24 08:41:08;;;;;;;7.97;5.75;;;17.30;99.90;;;;;;5012076;28;20621;-53
2022/09/24 08:43:46;;;;;;;7.05;5.53;;;17.60;99.90;;;;;;5011657;28;20293;-54
2022/09/24 08:49:03;;;;;;;9.18;5.57;;;18.10;99.90;;;;;;5012160;28;20277;-53
2022/09/24 08:51:38;;;;;;;8.02;7.20;;;18.40;99.90;;;;;;5012141;28;20210;-53
2022/09/24 08:54:08;;;;;;;7.22;5.63;;;18.80;99.90;;;;;;5011508;28;20206;-52
2022/09/24 08:56:42;;;;;;;7.60;5.15;;;19.10;99.90;;;;;;5012017;28;20235;-53
2022/09/24 08:59:23;;;;;;;7.18;5.80;;;19.40;99.90;;;;;;5011947;28;20210;-53
2022/09/24 09:01:56;;;;;;;8.38;5.25;;;19.50;99.90;;;;;;5011837;28;20592;-52
2022/09/24 09:04:28;;;;;;;9.52;5.95;;;20.00;99.90;;;;;;5011562;28;20232;-53
2022/09/24 09:07:10;;;;;;;7.97;6.03;;;20.60;99.90;;;;;;5011923;28;20242;-53
2022/09/24 09:09:49;;;;;;;5.80;5.07;;;21.00;99.90;;;;;;5012558;28;20285;-53
2022/09/24 09:12:25;;;;;;;7.60;4.90;;;21.40;99.90;;;;;;5016246;28;20570;-56
2022/09/24 09:14:57;;;;;;;5.65;4.82;;;21.40;99.90;;;;;;5016202;28;20264;-57
2022/09/24 09:17:36;;;;;;;9.98;5.05;;;21.60;99.90;;;;;;5016194;28;20358;-56
2022/09/24 09:20:07;;;;;;;8.82;5.13;;;21.90;99.90;;;;;;5015980;28;20207;-57
2022/09/24 09:22:39;;;;;;;8.43;4.97;;;22.00;99.90;;;;;;5015020;28;20210;-59
2022/09/24 09:25:16;;;;;;;7.68;4.78;;;22.10;99.90;;;;;;5015864;28;20211;-59
2022/09/24 09:27:45;;;;;;;9.65;4.90;;;22.30;99.90;;;;;;5015785;28;20236;-59
2022/09/24 09:30:21;;;;;;;8.85;4.82;;;22.70;99.90;;;;;;5015582;28;20222;-60
2022/09/24 09:33:04;;;;;;;8.10;5.00;;;23.00;99.90;;;;;;5015079;28;20238;-60
2022/09/24 09:35:38;;;;;;;8.88;4.60;;;23.20;99.90;;;;;;5015335;28;20671;-55
2022/09/24 09:38:16;;;;;;;7.80;5.65;;;23.40;99.90;;;;;;5015594;28;20209;-55
2022/09/24 09:40:47;;;;;;;8.13;5.07;;;23.40;99.90;;;;;;5015605;28;20214;-56
2022/09/24 09:43:16;;;;;;;6.78;5.25;;;23.30;99.90;;;;;;5014575;28;20210;-54
2022/09/24 09:45:54;;;;;;;5.72;5.00;;;23.20;99.90;;;;;;5015333;28;20280;-56
2022/09/24 09:48:25;;;;;;;6.47;4.70;;;22.80;99.90;;;;;;5015091;28;20580;-55
2022/09/24 09:50:58;;;;;;;14.25;6.43;;;22.40;99.90;;;;;;5015351;28;20273;-55
2022/09/24 09:53:26;;;;;;;10.57;5.07;;;22.50;99.90;;;;;;5014642;28;20230;-55
2022/09/24 09:55:55;;;;;;;8.43;5.30;;;22.50;99.90;;;;;;5015096;28;20284;-54
2022/09/24 09:58:25;;;;;;;7.13;4.75;;;22.20;99.90;;;;;;5015345;28;20202;-57
2022/09/24 10:01:02;;;;;;;8.05;5.40;;;22.40;99.90;;;;;;5015078;28;20214;-54
2022/09/24 10:03:32;;;;;;;6.82;5.28;;;22.30;99.90;;;;;;5014293;28;20206;-57
2022/09/24 10:06:01;;;;;;;9.88;4.60;;;22.50;99.90;;;;;;5014888;28;20245;-56
2022/09/24 10:08:28;;;;;;;5.90;4.85;;;22.60;99.90;;;;;;5014836;28;20269;-57
2022/09/24 10:10:56;;;;;;;5.72;4.53;;;22.80;99.90;;;;;;5015088;28;20234;-57
2022/09/24 10:13:25;;;;;;;6.80;4.70;;;22.90;99.80;;;;;;5014291;28;20211;-57
2022/09/24 10:15:54;;;;;;;10.32;5.43;;;23.00;99.20;;;;;;5014788;28;20231;-57
2022/09/24 10:18:29;;;;;;;7.88;5.22;;;22.90;99.40;;;;;;5014662;28;20211;-57
2022/09/24 10:20:57;;;;;;;7.60;4.82;;;22.60;99.90;;;;;;5014706;28;20225;-57
2022/09/24 10:23:32;;;;;;;6.45;4.97;;;22.30;99.90;;;;;;5013825;28;20298;-57
2022/09/24 10:26:02;;;;;;;6.93;5.18;;;22.20;99.90;;;;;;5014764;28;20245;-56
2022/09/24 10:31:20;;;;;;;6.68;4.22;;;22.20;99.90;;;;;;5014436;28;20269;-57
2022/09/24 10:33:49;;;;;;;5.72;4.85;;;22.40;99.90;;;;;;5014526;28;20306;-57
2022/09/24 10:36:20;;;;;;;5.60;5.05;;;22.70;99.90;;;;;;5014573;28;20233;-56
2022/09/24 10:38:47;;;;;;;5.25;4.57;;;22.90;99.90;;;;;;5014564;28;20214;-57
2022/09/24 10:41:26;;;;;;;7.10;4.85;;;22.90;99.90;;;;;;5014493;28;20213;-56
2022/09/24 10:43:55;;;;;;;6.15;4.53;;;22.80;99.90;;;;;;5013917;28;20214;-56
2022/09/24 10:46:43;;;;;;;6.05;4.75;;;22.80;99.90;;;;;;5014181;28;20243;-57
2022/09/24 10:49:19;;;;;;;7.85;4.90;;;22.80;99.90;;;;;;5014109;28;20214;-56
2022/09/24 10:51:55;;;;;;;5.13;4.53;;;22.50;99.90;;;;;;5014023;28;20286;-57
2022/09/24 10:54:40;;;;;;;6.25;4.57;;;22.40;99.90;;;;;;5013713;28;20214;-56
2022/09/24 10:57:16;;;;;;;5.35;4.25;;;22.30;99.90;;;;;;5014051;28;20301;-56
2022/09/24 10:59:53;;;;;;;6.15;4.85;;;22.00;99.90;;;;;;5014250;28;20238;-55
2022/09/24 11:02:34;;;;;;;8.70;4.82;;;21.80;99.90;;;;;;5014797;28;20240;-53
2022/09/24 11:05:04;;;;;;;10.70;6.22;;;21.70;99.90;;;;;;5014472;28;20210;-54
2022/09/24 11:07:56;;;;;;;8.32;5.80;;;21.80;99.90;;;;;;5013850;28;20325;-54
2022/09/24 11:10:50;;;;;;;5.60;4.38;;;22.10;99.90;;;;;;5013687;28;20253;-57
2022/09/24 11:13:25;;;;;;;6.50;4.85;;;22.30;99.90;;;;;;5013283;28;20203;-53
2022/09/24 11:16:10;;;;;;;6.00;5.18;;;21.90;99.90;;;;;;5013631;28;20226;-54
2022/09/24 11:18:46;;;;;;;10.07;5.15;;;21.90;99.90;;;;;;5013648;28;20237;-53
2022/09/24 11:21:25;;;;;;;5.53;4.75;;;22.10;99.90;;;;;;5013591;28;20213;-53
2022/09/24 11:24:31;;;;;;;7.63;5.05;;;22.20;99.90;;;;;;5012968;28;20268;-54
2022/09/24 11:27:12;;;;;;;6.50;4.80;;;22.20;99.90;;;;;;5012578;28;20226;-56
2022/09/24 11:29:54;;;;;;;7.03;5.03;;;22.40;99.90;;;;;;5013228;28;20219;-56
2022/09/24 11:32:30;;;;;;;5.40;4.47;;;22.50;99.90;;;;;;5013428;28;20215;-56
2022/09/24 11:35:15;;;;;;;6.63;4.10;;;22.60;99.90;;;;;;5011883;28;20608;-56
2022/09/24 11:37:53;;;;;;;4.65;3.10;;;22.80;99.90;;;;;;5012987;28;20640;-56
2022/09/24 11:40:40;;;;;;;3.95;2.20;;;23.00;99.90;;;;;;5013461;28;20207;-56
2022/09/24 11:43:24;;;;;;;3.25;2.53;;;23.30;99.90;;;;;;5012456;28;20667;-57
2022/09/24 11:46:04;;;;;;;3.70;2.90;;;23.70;99.90;;;;;;5012897;28;20230;-57
2022/09/24 11:48:52;;;;;;;3.38;1.90;;;23.80;99.90;;;;;;5013243;28;20214;-57
2022/09/24 11:51:30;;;;;;;2.10;1.73;;;23.90;99.90;;;;;;5013011;28;20293;-57
2022/09/24 11:54:02;;;;;;;2.45;1.90;;;24.00;99.90;;;;;;5012962;28;20225;-54
2022/09/24 11:56:33;;;;;;;4.50;1.90;;;23.90;99.90;;;;;;5012731;28;20230;-54
2022/09/24 11:59:16;;;;;;;2.83;2.03;;;23.50;99.90;;;;;;5013089;28;20703;-55
2022/09/24 12:01:49;;;;;;;2.53;2.10;;;23.40;99.90;;;;;;5012890;28;20663;-60
2022/09/24 12:04:21;;;;;;;2.40;2.20;;;23.60;99.90;;;;;;5012391;28;20202;-60
2022/09/24 12:06:54;;;;;;;2.38;1.95;;;23.70;99.90;;;;;;5012522;28;20241;-57
2022/09/24 12:09:26;;;;;;;2.60;2.08;;;23.80;99.90;;;;;;5012303;28;20218;-56
2022/09/24 12:11:57;;;;;;;2.95;1.80;;;23.80;99.90;;;;;;5012900;28;20362;-56
2022/09/24 12:14:28;;;;;;;3.97;2.17;;;23.90;99.90;;;;;;5012423;28;20218;-55
2022/09/24 12:17:01;;;;;;;2.25;1.73;;;23.90;99.90;;;;;;5012569;28;20285;-63
2022/09/24 12:19:34;;;;;;;5.30;1.95;;;23.80;99.90;;;;;;5012586;28;20218;-59
2022/09/24 12:22:03;;;;;;;3.60;2.50;;;23.50;99.90;;;;;;5012824;28;20302;-66
2022/09/24 12:24:35;;;;;;;3.40;2.40;;;23.30;99.90;;;;;;5011979;28;20622;-55
2022/09/24 12:27:06;;;;;;;2.90;2.63;;;23.10;99.90;;;;;;5012371;28;20226;-57
2022/09/24 12:35:33;;;;;;;3.30;2.38;;;22.50;99.90;;;;;;5012349;28;20206;-56
2022/09/24 12:38:04;;;;;;;2.95;1.85;;;22.20;99.90;;;;;;5012230;28;20210;-56
2022/09/24 12:41:01;;;;;;;2.50;2.10;;;22.00;99.90;;;;;;5006491;28;20222;-60
2022/09/24 12:43:32;;;;;;;2.95;1.90;;;21.90;99.90;;;;;;5029697;28;20206;-60
2022/09/24 12:46:01;;;;;;;2.83;2.00;;;21.70;99.90;;;;;;5030348;28;20312;-59
2022/09/24 12:48:30;;;;;;;1.80;1.70;;;21.60;99.90;;;;;;5030469;28;20297;-61
2022/09/24 12:51:00;;;;;;;3.15;1.98;;;21.50;99.90;;;;;;5030288;28;20238;-58
2022/09/24 12:53:33;;;;;;;4.00;2.10;;;21.40;99.90;;;;;;5019492;28;20206;-58
2022/09/24 12:56:02;;;;;;;2.00;1.80;;;21.10;99.90;;;;;;5010307;28;20249;-59
2022/09/24 12:58:36;;;;;;;2.78;1.83;;;20.90;99.90;;;;;;5010664;28;20203;-60
2022/09/24 13:01:11;;;;;;;2.10;1.90;;;20.70;99.90;;;;;;5010726;28;20697;-57
2022/09/24 13:03:39;;;;;;;1.60;1.50;;;20.50;99.90;;;;;;5010145;28;20272;-60
2022/09/24 13:06:23;;;;;;;3.83;2.80;;;20.40;99.90;;;;;;5009387;28;20231;-62
2022/09/24 13:08:50;;;;;;;5.07;3.30;;;20.30;99.90;;;;;;5010620;28;20207;-59
2022/09/24 13:11:29;;;;;;;5.75;4.18;;;20.20;99.90;;;;;;5010628;28;20675;-60
2022/09/24 13:14:02;;;;;;;6.68;4.80;;;20.10;99.90;;;;;;5010410;28;20758;-60
2022/09/24 13:16:30;;;;;;;4.32;3.90;;;20.10;99.90;;;;;;5010148;28;20223;-59
2022/09/24 13:19:01;;;;;;;4.20;3.30;;;20.10;99.90;;;;;;5010872;28;20206;-60
2022/09/24 13:21:30;;;;;;;5.60;2.92;;;20.10;99.90;;;;;;5010810;28;20592;-60
2022/09/24 13:23:57;;;;;;;5.13;3.80;;;20.10;99.90;;;;;;5010663;28;20245;-60
2022/09/24 13:26:32;;;;;;;5.63;3.28;;;20.10;99.90;;;;;;5010632;28;20230;-59